Time;durP1;ratioP1;P1;durP2;ratioP2;P2;SDS_P1;SDS_P2;PMS_P1;PMS_P2;Temp;Humidity;BMP_temperature;BMP_pressure;BME280_temperature;BME280_humidity;BME280_pressure;Samples;Min_cycle;Max_cycle;Signal;HPM_P1;HPM_P2
2023/04/07 00:02:31;;;;;;;18.67;13.32;;;;;;;1.40;60.41;101405.75;7401123;19;20492;-67
2023/04/07 00:05:01;;;;;;;14.63;12.88;;;;;;;1.36;60.20;101398.72;7401057;19;20033;-72
2023/04/07 00:07:30;;;;;;;14.85;12.73;;;;;;;1.37;60.63;101402.22;7398920;19;20010;-69
2023/04/07 00:09:58;;;;;;;17.00;14.35;;;;;;;1.33;60.76;101387.41;7401265;19;20022;-67
2023/04/07 00:12:27;;;;;;;17.27;13.82;;;;;;;1.34;60.48;101399.53;7398503;19;20094;-67
2023/04/07 00:14:55;;;;;;;15.77;13.50;;;;;;;1.34;60.82;101402.09;7400682;19;20481;-67
2023/04/07 00:17:23;;;;;;;15.85;14.02;;;;;;;1.32;60.65;101398.63;7400779;19;20039;-67
2023/04/07 00:19:54;;;;;;;16.42;13.82;;;;;;;1.30;60.95;101395.97;7400517;19;20078;-68
2023/04/07 00:22:23;;;;;;;18.08;14.05;;;;;;;1.30;60.89;101398.56;7401277;19;20026;-67
2023/04/07 00:24:59;;;;;;;16.17;13.25;;;;;;;1.28;60.99;101393.34;7397686;19;20022;-68
2023/04/07 00:27:27;;;;;;;18.55;14.43;;;;;;;1.26;61.20;101392.47;7400666;19;20078;-69
2023/04/07 00:29:56;;;;;;;16.00;13.63;;;;;;;1.25;61.14;101398.47;7400632;19;20031;-68
2023/04/07 00:32:24;;;;;;;16.13;13.95;;;;;;;1.22;61.34;101394.91;7400483;19;20021;-68
2023/04/07 00:34:56;;;;;;;19.45;15.00;;;;;;;1.19;61.38;101389.63;7397830;19;20018;-68
2023/04/07 00:37:24;;;;;;;16.70;14.80;;;;;;;1.15;61.65;101388.69;7400739;19;20089;-68
2023/04/07 00:39:53;;;;;;;16.42;13.80;;;;;;;1.09;61.55;101389.41;7398606;19;20010;-68
2023/04/07 00:42:21;;;;;;;17.48;14.35;;;;;;;1.08;61.71;101386.78;7400248;19;20024;-69
2023/04/07 00:44:50;;;;;;;16.10;14.30;;;;;;;1.06;61.85;101388.44;7397517;19;20082;-68
2023/04/07 00:47:18;;;;;;;16.38;14.20;;;;;;;1.04;62.05;101384.94;7400238;19;20035;-68
2023/04/07 00:49:47;;;;;;;16.17;13.90;;;;;;;1.01;62.07;101379.69;7399968;19;20078;-69
2023/04/07 00:52:26;;;;;;;17.75;15.77;;;;;;;1.02;62.06;101381.44;7399275;19;20560;-68
2023/04/07 00:54:55;;;;;;;21.27;15.10;;;;;;;0.97;62.11;101382.19;7400175;19;20021;-69
2023/04/07 00:57:24;;;;;;;16.33;14.65;;;;;;;0.92;62.25;101377.72;7399472;19;20081;-67
2023/04/07 00:59:53;;;;;;;18.20;15.25;;;;;;;0.89;62.34;101375.06;7397260;19;20019;-68
2023/04/07 01:02:28;;;;;;;15.70;14.13;;;;;;;0.83;62.47;101374.88;7399227;19;20105;-69
2023/04/07 01:05:02;;;;;;;17.23;15.32;;;;;;;0.78;62.59;101373.06;7399792;19;20015;-68
2023/04/07 01:07:37;;;;;;;16.92;14.05;;;;;;;0.74;62.76;101371.19;7396820;19;20018;-68
2023/04/07 01:10:08;;;;;;;17.40;15.20;;;;;;;0.71;62.81;101371.13;7399619;19;20018;-69
2023/04/07 01:12:41;;;;;;;17.58;15.68;;;;;;;0.67;62.76;101369.28;7398701;19;20035;-68
2023/04/07 01:15:13;;;;;;;18.83;15.23;;;;;;;0.64;62.83;101371.75;7399554;19;20031;-69
2023/04/07 01:17:48;;;;;;;16.02;14.32;;;;;;;0.59;62.84;101373.34;7398563;19;20454;-68
2023/04/07 01:20:21;;;;;;;17.50;15.60;;;;;;;0.53;63.41;101368.88;7398563;19;20021;-69
2023/04/07 01:22:56;;;;;;;16.35;14.75;;;;;;;0.46;63.34;101365.22;7398236;19;20027;-68
2023/04/07 01:25:36;;;;;;;15.77;14.10;;;;;;;0.43;63.59;101366.81;7399265;19;20273;-69
2023/04/07 01:28:27;;;;;;;16.48;14.73;;;;;;;0.38;63.80;101360.66;7398807;19;20457;-69
2023/04/07 01:31:01;;;;;;;17.70;14.30;;;;;;;0.32;63.62;101363.94;7399061;19;20086;-69
2023/04/07 01:33:33;;;;;;;17.38;14.77;;;;;;;0.26;63.76;101358.59;7397870;19;20023;-68
2023/04/07 01:36:02;;;;;;;17.98;14.25;;;;;;;0.23;63.89;101358.47;7398828;19;20014;-69
2023/04/07 01:38:32;;;;;;;15.90;13.38;;;;;;;0.21;63.80;101360.16;7397116;19;20074;-69
2023/04/07 01:41:03;;;;;;;17.90;14.55;;;;;;;0.18;63.90;101360.03;7398683;19;20019;-68
2023/04/07 01:43:33;;;;;;;17.05;14.93;;;;;;;0.10;64.14;101355.56;7397540;19;20045;-68
2023/04/07 01:46:05;;;;;;;17.48;15.57;;;;;;;0.08;64.33;101353.75;7398075;19;20090;-69
2023/04/07 01:48:36;;;;;;;20.02;15.80;;;;;;;0.04;64.62;101354.47;7398506;19;20454;-69
2023/04/07 01:51:06;;;;;;;18.35;15.07;;;;;;;-0.01;64.70;101351.75;7399696;19;20022;-69
2023/04/07 01:53:36;;;;;;;16.30;14.60;;;;;;;-0.05;64.63;101350.78;7396579;19;20028;-68
2023/04/07 01:56:05;;;;;;;17.45;13.70;;;;;;;-0.10;64.62;101352.34;7398142;19;20025;-69
2023/04/07 01:58:34;;;;;;;17.77;14.93;;;;;;;-0.13;64.95;101349.66;7397073;19;20453;-68
2023/04/07 02:01:05;;;;;;;17.83;14.95;;;;;;;-0.15;65.04;101358.16;7397162;19;20094;-69
2023/04/07 02:03:42;;;;;;;16.67;14.98;;;;;;;-0.15;64.91;101355.59;7395448;19;20019;-68
2023/04/07 02:06:13;;;;;;;19.92;15.75;;;;;;;-0.17;65.04;101359.00;7397849;19;20032;-69
2023/04/07 02:08:48;;;;;;;17.88;15.35;;;;;;;-0.17;65.15;101355.53;7395884;19;20011;-69
2023/04/07 02:11:20;;;;;;;17.45;15.75;;;;;;;-0.19;65.03;101347.75;7397460;19;20019;-68
2023/04/07 02:13:51;;;;;;;18.92;15.75;;;;;;;-0.20;65.31;101352.88;7396261;19;20031;-69
2023/04/07 02:16:23;;;;;;;17.38;15.63;;;;;;;-0.20;65.56;101345.16;7397619;19;20053;-69
2023/04/07 02:18:52;;;;;;;16.88;15.18;;;;;;;-0.22;65.45;101341.63;7396633;19;20083;-69
2023/04/07 02:21:21;;;;;;;18.55;16.65;;;;;;;-0.25;65.58;101337.25;7396835;19;20090;-69
2023/04/07 02:23:50;;;;;;;20.13;16.13;;;;;;;-0.26;65.63;101343.22;7395852;19;20014;-69
2023/04/07 02:26:18;;;;;;;17.88;15.90;;;;;;;-0.28;65.69;101344.88;7396702;19;20014;-68
2023/04/07 02:28:47;;;;;;;18.75;16.75;;;;;;;-0.29;65.97;101337.09;7396281;19;20541;-69
2023/04/07 02:31:15;;;;;;;19.90;17.02;;;;;;;-0.29;65.78;101339.66;7396545;19;20078;-69
2023/04/07 02:33:46;;;;;;;19.45;17.02;;;;;;;-0.29;66.13;101339.66;7395603;19;20375;-69
2023/04/07 02:36:14;;;;;;;21.23;19.08;;;;;;;-0.29;65.87;101340.56;7396176;19;20102;-69
2023/04/07 02:38:43;;;;;;;21.98;19.25;;;;;;;-0.30;66.02;101336.22;7395248;19;20018;-69
2023/04/07 02:41:11;;;;;;;21.92;19.40;;;;;;;-0.32;66.13;101335.28;7394285;19;20520;-69
2023/04/07 02:43:40;;;;;;;22.60;20.20;;;;;;;-0.31;66.28;101334.47;7395306;19;20022;-69
2023/04/07 02:46:08;;;;;;;22.45;19.75;;;;;;;-0.31;66.19;101329.31;7396138;19;20022;-69
2023/04/07 02:48:37;;;;;;;24.27;21.80;;;;;;;-0.32;66.47;101331.84;7396117;19;20077;-69
2023/04/07 02:51:08;;;;;;;24.45;21.58;;;;;;;-0.31;66.46;101331.03;7394050;19;20354;-69
2023/04/07 02:53:36;;;;;;;25.40;21.48;;;;;;;-0.31;66.31;101328.44;7393920;19;20081;-69
2023/04/07 02:56:05;;;;;;;30.67;22.80;;;;;;;-0.32;66.59;101331.84;7395514;19;20078;-69
2023/04/07 02:58:34;;;;;;;28.27;22.95;;;;;;;-0.33;66.52;101330.94;7395467;19;20074;-69
2023/04/07 03:01:02;;;;;;;24.90;21.95;;;;;;;-0.35;66.79;101330.91;7395764;19;20015;-68
2023/04/07 03:03:31;;;;;;;22.25;19.85;;;;;;;-0.36;66.79;101333.44;7394829;19;20018;-68
2023/04/07 03:05:59;;;;;;;22.67;20.35;;;;;;;-0.35;66.74;101324.91;7395624;19;20440;-68
2023/04/07 03:08:30;;;;;;;22.20;19.60;;;;;;;-0.41;67.03;101319.53;7395115;19;20035;-68
2023/04/07 03:10:59;;;;;;;22.27;19.98;;;;;;;-0.36;66.85;101333.44;7394952;19;20091;-69
2023/04/07 03:13:28;;;;;;;20.73;18.67;;;;;;;-0.37;66.95;101329.09;7394539;19;20033;-68
2023/04/07 03:15:57;;;;;;;22.33;19.92;;;;;;;-0.38;66.99;101324.78;7398363;19;20015;-68
2023/04/07 03:18:25;;;;;;;21.27;19.15;;;;;;;-0.39;67.11;101330.75;7399865;19;20025;-69
2023/04/07 03:20:55;;;;;;;20.15;18.05;;;;;;;-0.40;67.06;101323.88;7402500;19;20430;-69
2023/04/07 03:23:23;;;;;;;21.20;18.42;;;;;;;-0.41;67.30;101325.56;7401674;19;20022;-68
2023/04/07 03:25:56;;;;;;;21.15;17.00;;;;;;;-0.42;67.47;101322.94;7399834;19;20021;-68
2023/04/07 03:28:24;;;;;;;20.48;17.90;;;;;;;-0.41;67.30;101319.53;7403009;19;20024;-68
2023/04/07 03:30:53;;;;;;;20.00;17.42;;;;;;;-0.42;67.35;101318.63;7402611;19;20058;-69
2023/04/07 03:33:21;;;;;;;18.55;16.45;;;;;;;-0.40;67.66;101314.41;7401603;19;20094;-68
2023/04/07 03:35:50;;;;;;;23.23;16.90;;;;;;;-0.41;67.42;101317.81;7402484;19;20086;-69
2023/04/07 03:38:18;;;;;;;18.25;16.40;;;;;;;-0.42;67.76;101320.34;7398885;19;20484;-69
2023/04/07 03:40:53;;;;;;;18.77;16.77;;;;;;;-0.44;68.00;101311.69;7398533;19;20067;-69
2023/04/07 03:43:24;;;;;;;17.85;15.80;;;;;;;-0.45;67.90;101317.69;7401377;19;20066;-68
2023/04/07 03:45:54;;;;;;;23.33;16.20;;;;;;;-0.47;68.00;101315.03;7401555;19;20558;-68
2023/04/07 03:48:23;;;;;;;17.50;15.73;;;;;;;-0.48;67.84;101320.16;7402505;19;20326;-68
2023/04/07 03:50:51;;;;;;;17.70;15.70;;;;;;;-0.48;68.14;101317.56;7401727;19;20022;-69
2023/04/07 03:53:20;;;;;;;16.67;14.88;;;;;;;-0.48;67.90;101321.03;7400263;19;20540;-68
2023/04/07 03:55:49;;;;;;;17.45;15.32;;;;;;;-0.48;68.12;101317.56;7401504;19;20078;-68
2023/04/07 03:58:17;;;;;;;20.27;15.65;;;;;;;-0.49;67.96;101314.13;7398772;19;20007;-68
2023/04/07 04:00:49;;;;;;;17.45;14.57;;;;;;;-0.48;68.07;101318.47;7398704;19;20090;-69
2023/04/07 04:03:17;;;;;;;19.48;13.88;;;;;;;-0.50;68.08;101315.81;7398978;19;20044;-68
2023/04/07 04:05:46;;;;;;;16.33;14.68;;;;;;;-0.48;68.10;101313.31;7401454;19;20090;-69
2023/04/07 04:08:14;;;;;;;17.33;15.48;;;;;;;-0.47;68.15;101315.03;7400841;19;20402;-69
2023/04/07 04:10:43;;;;;;;17.40;14.93;;;;;;;-0.46;68.27;101323.66;7401115;19;20022;-69
2023/04/07 04:13:11;;;;;;;18.63;16.02;;;;;;;-0.44;68.40;101325.47;7400355;19;20082;-70
2023/04/07 04:15:40;;;;;;;18.02;14.82;;;;;;;-0.42;68.15;101313.47;7398495;19;20015;-69
2023/04/07 04:18:11;;;;;;;18.02;16.13;;;;;;;-0.39;68.31;101315.28;7400563;19;20083;-69
2023/04/07 04:20:39;;;;;;;21.73;16.67;;;;;;;-0.38;68.16;101314.47;7398198;19;20031;-70
2023/04/07 04:23:08;;;;;;;16.90;15.07;;;;;;;-0.38;68.14;101319.63;7399955;19;20031;-69
2023/04/07 04:25:38;;;;;;;121.18;62.40;;;;;;;-0.36;68.32;101323.13;7400710;19;20034;-69
2023/04/07 04:28:07;;;;;;;20.98;18.33;;;;;;;-0.36;68.50;101317.97;7399594;19;20022;-69
2023/04/07 04:30:35;;;;;;;19.70;17.70;;;;;;;-0.36;68.40;101324.00;7400554;19;20014;-69
2023/04/07 04:33:04;;;;;;;18.73;16.58;;;;;;;-0.38;68.57;101317.03;7399936;19;20102;-69
2023/04/07 04:35:35;;;;;;;23.23;16.85;;;;;;;-0.36;68.65;101312.81;7400376;19;20018;-69
2023/04/07 04:38:04;;;;;;;18.25;15.80;;;;;;;-0.35;68.69;101318.03;7399953;19;20509;-68
2023/04/07 04:40:32;;;;;;;19.83;17.77;;;;;;;-0.35;68.79;101320.59;7397843;19;20086;-68
2023/04/07 04:43:05;;;;;;;20.50;17.05;;;;;;;-0.34;68.79;101324.06;7399143;19;20070;-68
2023/04/07 04:45:34;;;;;;;20.65;17.98;;;;;;;-0.34;69.03;101322.34;7400155;19;20369;-68
2023/04/07 04:48:03;;;;;;;22.67;18.52;;;;;;;-0.37;68.87;101322.28;7397568;19;20018;-68
2023/04/07 04:50:31;;;;;;;21.85;19.35;;;;;;;-0.35;69.17;101338.66;7399680;19;20036;-68
2023/04/07 04:53:02;;;;;;;25.73;20.00;;;;;;;-0.36;69.19;101325.72;7398881;19;20094;-69
2023/04/07 04:55:31;;;;;;;29.73;20.52;;;;;;;-0.36;69.12;101326.56;7400100;19;20074;-69
2023/04/07 04:58:00;;;;;;;25.80;19.00;;;;;;;-0.35;69.21;101330.06;7399674;19;20022;-68
2023/04/07 05:00:28;;;;;;;26.23;20.52;;;;;;;-0.36;69.43;101333.44;7398254;19;20006;-69
2023/04/07 05:02:57;;;;;;;23.98;19.20;;;;;;;-0.36;69.44;101328.28;7398467;19;20512;-68
2023/04/07 05:05:25;;;;;;;25.40;19.63;;;;;;;-0.38;69.41;101323.09;7399275;19;20022;-68
2023/04/07 05:07:54;;;;;;;30.60;19.83;;;;;;;-0.34;69.46;101326.66;7398931;19;20505;-69
2023/04/07 05:10:25;;;;;;;26.73;19.23;;;;;;;-0.34;69.48;101321.50;7399137;19;20041;-68
2023/04/07 05:12:53;;;;;;;28.08;21.05;;;;;;;-0.34;69.70;101322.34;7398632;19;20433;-69
2023/04/07 05:15:22;;;;;;;28.90;20.83;;;;;;;-0.31;69.54;101329.31;7396773;19;20078;-69
2023/04/07 05:17:50;;;;;;;29.00;20.73;;;;;;;-0.29;69.72;101335.41;7398945;19;20035;-68
2023/04/07 05:20:19;;;;;;;33.10;22.73;;;;;;;-0.29;69.84;101321.63;7397584;19;20078;-68
2023/04/07 05:22:47;;;;;;;27.55;19.88;;;;;;;-0.26;69.82;101332.91;7398046;19;20106;-68
2023/04/07 05:25:16;;;;;;;25.58;20.20;;;;;;;-0.24;69.64;101332.94;7399045;19;20032;-70
2023/04/07 05:27:47;;;;;;;25.73;19.75;;;;;;;-0.22;69.62;101332.19;7398702;19;20022;-70
2023/04/07 05:30:16;;;;;;;25.60;19.45;;;;;;;-0.19;69.80;101331.41;7398910;19;20074;-69
2023/04/07 05:32:45;;;;;;;25.65;19.73;;;;;;;-0.16;69.60;101331.50;7398267;19;20018;-70
2023/04/07 05:35:13;;;;;;;26.73;19.70;;;;;;;-0.13;69.86;101326.44;7398366;19;20022;-69
2023/04/07 05:37:42;;;;;;;23.88;20.27;;;;;;;-0.10;69.65;101329.13;7396619;19;20086;-70
2023/04/07 05:40:11;;;;;;;26.45;20.05;;;;;;;-0.06;69.69;101333.53;7395995;19;20090;-70
2023/04/07 05:42:40;;;;;;;27.20;21.45;;;;;;;0.00;69.62;101338.03;7397450;19;20018;-70
2023/04/07 05:45:12;;;;;;;28.15;20.10;;;;;;;0.03;69.78;101325.22;7397817;19;20086;-69
2023/04/07 05:47:40;;;;;;;26.30;21.08;;;;;;;0.12;69.89;101333.22;7397661;19;20089;-70
2023/04/07 05:50:11;;;;;;;23.23;19.27;;;;;;;0.19;69.74;101330.84;7397775;19;20035;-69
2023/04/07 05:52:39;;;;;;;22.15;18.25;;;;;;;0.27;69.70;101329.38;7397632;19;20472;-69
2023/04/07 05:55:09;;;;;;;22.13;17.38;;;;;;;0.34;69.74;101326.13;7397763;19;20031;-69
2023/04/07 05:57:38;;;;;;;22.00;18.98;;;;;;;0.40;69.46;101322.88;7397831;19;20077;-68
2023/04/07 06:00:17;;;;;;;24.45;17.90;;;;;;;0.52;69.56;101330.06;7397030;19;20019;-69
2023/04/07 06:02:45;;;;;;;24.95;17.40;;;;;;;0.59;69.38;101332.88;7397674;19;20074;-70
2023/04/07 06:05:14;;;;;;;22.65;17.08;;;;;;;0.66;69.01;101331.38;7397090;19;20094;-69
2023/04/07 06:07:42;;;;;;;21.67;17.60;;;;;;;0.77;68.94;101336.81;7397002;19;20362;-69
2023/04/07 06:10:11;;;;;;;21.67;15.93;;;;;;;0.84;68.78;101332.72;7397239;19;20094;-70
2023/04/07 06:12:39;;;;;;;19.13;15.35;;;;;;;0.92;68.79;101333.78;7396983;19;20014;-68
2023/04/07 06:15:09;;;;;;;17.70;15.30;;;;;;;1.01;68.69;101341.81;7396761;19;20082;-67
2023/04/07 06:17:40;;;;;;;22.27;15.85;;;;;;;1.08;68.42;101330.78;7396718;19;20377;-69
2023/04/07 06:20:10;;;;;;;21.05;15.98;;;;;;;1.17;68.03;101331.88;7395487;19;20023;-68
2023/04/07 06:22:39;;;;;;;20.92;16.00;;;;;;;1.25;67.99;101331.25;7396296;19;20038;-68
2023/04/07 06:25:08;;;;;;;20.08;16.13;;;;;;;1.35;67.79;101329.75;7396688;19;20082;-68
2023/04/07 06:27:37;;;;;;;16.55;14.73;;;;;;;1.44;67.55;101334.28;7396418;19;20019;-68
2023/04/07 06:30:28;;;;;;;18.48;14.93;;;;;;;1.54;67.44;101345.72;7396486;19;20025;-68
2023/04/07 06:32:59;;;;;;;17.83;13.60;;;;;;;1.62;67.07;101342.50;7396139;19;20023;-68
2023/04/07 06:35:28;;;;;;;21.55;14.60;;;;;;;1.69;66.86;101337.47;7395927;19;20017;-68
2023/04/07 06:37:56;;;;;;;19.15;14.50;;;;;;;1.75;66.83;101335.03;7396308;19;20025;-68
2023/04/07 06:40:31;;;;;;;18.05;13.68;;;;;;;1.80;66.63;101336.03;7394489;19;20074;-68
2023/04/07 06:43:00;;;;;;;20.00;14.02;;;;;;;1.88;66.55;101343.97;7396014;19;20078;-68
2023/04/07 06:45:28;;;;;;;18.33;13.98;;;;;;;1.95;66.17;101343.28;7394392;19;20014;-68
2023/04/07 06:47:59;;;;;;;20.15;14.15;;;;;;;2.02;66.26;101337.41;7396273;19;20023;-68
2023/04/07 06:50:28;;;;;;;17.60;13.85;;;;;;;2.11;65.97;101341.91;7394973;19;20019;-68
2023/04/07 06:52:56;;;;;;;21.95;14.32;;;;;;;2.16;65.72;101342.91;7395477;19;20078;-68
2023/04/07 06:55:26;;;;;;;20.63;14.82;;;;;;;2.23;65.60;101343.91;7396571;19;20085;-68
2023/04/07 06:57:54;;;;;;;20.33;14.57;;;;;;;2.32;65.50;101340.66;7394096;19;20025;-68
2023/04/07 07:00:23;;;;;;;22.15;14.98;;;;;;;2.39;65.26;101334.75;7394761;19;20162;-69
2023/04/07 07:02:52;;;;;;;21.13;13.82;;;;;;;2.46;65.13;101335.75;7394286;19;20018;-68
2023/04/07 07:05:23;;;;;;;20.77;14.60;;;;;;;2.54;64.94;101339.38;7395304;19;20035;-68
2023/04/07 07:07:52;;;;;;;18.45;13.48;;;;;;;2.60;65.03;101326.56;7394977;19;20015;-68
2023/04/07 07:10:21;;;;;;;18.75;14.40;;;;;;;2.68;64.92;101337.97;7395138;19;20090;-68
2023/04/07 07:12:50;;;;;;;19.95;13.75;;;;;;;2.73;64.73;101336.34;7394020;19;20015;-68
2023/04/07 07:15:19;;;;;;;18.85;14.52;;;;;;;2.79;64.82;101330.38;7394777;19;20070;-69
2023/04/07 07:17:47;;;;;;;20.05;14.23;;;;;;;2.85;64.74;101320.13;7394620;19;20019;-68
2023/04/07 07:20:16;;;;;;;19.48;13.68;;;;;;;2.93;64.32;101325.47;7394480;19;20070;-69
2023/04/07 07:22:47;;;;;;;20.80;14.40;;;;;;;2.86;64.16;101300.28;7394797;19;20031;-69
2023/04/07 07:25:15;;;;;;;19.27;14.40;;;;;;;3.06;64.14;101324.00;7395234;19;20090;-69
2023/04/07 07:27:44;;;;;;;24.73;15.13;;;;;;;3.13;64.12;101335.34;7394754;19;20078;-69
2023/04/07 07:30:13;;;;;;;19.20;14.95;;;;;;;3.18;64.02;101331.97;7394727;19;20035;-68
2023/04/07 07:32:41;;;;;;;18.33;13.82;;;;;;;3.23;64.10;101325.16;7394118;19;20014;-68
2023/04/07 07:35:10;;;;;;;18.30;13.88;;;;;;;3.31;63.70;101332.19;7394450;19;20018;-69
2023/04/07 07:37:39;;;;;;;20.90;14.38;;;;;;;3.37;63.75;101333.19;7395856;19;20078;-68
2023/04/07 07:40:17;;;;;;;16.75;13.43;;;;;;;3.46;63.36;101336.78;7393097;19;20021;-69
2023/04/07 07:42:45;;;;;;;20.45;13.77;;;;;;;3.53;63.17;101343.84;7394710;19;20019;-69
2023/04/07 07:45:13;;;;;;;19.05;14.38;;;;;;;3.61;63.13;101342.22;7393847;19;20584;-69
2023/04/07 07:47:42;;;;;;;19.88;14.25;;;;;;;3.69;63.24;101345.84;7393943;19;20070;-68
2023/04/07 07:50:11;;;;;;;21.52;15.07;;;;;;;3.81;63.51;101352.94;7393660;19;20077;-68
2023/04/07 07:52:40;;;;;;;21.75;14.93;;;;;;;3.95;63.18;101350.56;7394039;19;20082;-68
2023/04/07 07:55:09;;;;;;;49.88;28.45;;;;;;;4.06;62.85;101343.78;7393784;19;20013;-68
2023/04/07 07:57:40;;;;;;;20.17;13.55;;;;;;;4.20;62.08;101348.34;7395376;19;20489;-68
2023/04/07 08:00:10;;;;;;;18.70;12.65;;;;;;;4.33;62.10;101352.81;7391898;19;20426;-68
2023/04/07 08:02:39;;;;;;;17.50;12.57;;;;;;;4.46;61.99;101347.81;7395774;19;20014;-68
2023/04/07 08:05:08;;;;;;;17.85;11.95;;;;;;;4.60;61.94;101346.28;7400538;19;20015;-68
2023/04/07 08:07:37;;;;;;;16.77;12.45;;;;;;;4.73;61.28;101347.28;7401173;19;20033;-68
2023/04/07 08:10:05;;;;;;;18.42;11.93;;;;;;;4.83;61.29;101346.53;7397962;19;20025;-68
2023/04/07 08:12:34;;;;;;;15.15;11.48;;;;;;;4.96;61.02;101344.94;7400748;19;20074;-68
2023/04/07 08:15:06;;;;;;;18.77;11.38;;;;;;;5.10;60.95;101347.69;7400867;19;20087;-68
2023/04/07 08:17:35;;;;;;;15.50;11.57;;;;;;;5.24;60.62;101347.84;7401290;19;20040;-68
2023/04/07 08:20:03;;;;;;;16.20;10.88;;;;;;;5.34;60.27;101346.19;7397851;19;20082;-68
2023/04/07 08:22:32;;;;;;;15.02;11.75;;;;;;;5.43;60.15;101346.28;7400089;19;20094;-68
2023/04/07 08:25:00;;;;;;;15.95;11.82;;;;;;;5.54;60.23;101354.19;7399906;19;20025;-68
2023/04/07 08:27:28;;;;;;;16.23;11.77;;;;;;;5.65;60.06;101343.84;7397769;19;20078;-68
2023/04/07 08:30:01;;;;;;;22.73;12.55;;;;;;;5.76;59.94;101355.22;7399955;19;20022;-68
2023/04/07 08:32:39;;;;;;;13.82;10.75;;;;;;;5.90;59.67;101363.16;7399603;19;20014;-68
2023/04/07 08:35:08;;;;;;;14.18;10.73;;;;;;;6.01;59.50;101361.53;7399602;19;20107;-68
2023/04/07 08:37:37;;;;;;;18.80;11.57;;;;;;;6.11;59.29;101356.41;7400098;19;20035;-69
2023/04/07 08:40:07;;;;;;;14.25;10.75;;;;;;;6.23;59.04;101361.69;7398666;19;20078;-69
2023/04/07 08:42:39;;;;;;;15.57;11.07;;;;;;;6.37;58.94;101361.78;7399131;19;20014;-68
2023/04/07 08:45:09;;;;;;;15.27;10.23;;;;;;;6.50;58.53;101363.56;7397689;19;20022;-68
2023/04/07 08:47:42;;;;;;;15.70;11.65;;;;;;;6.62;57.94;101357.56;7399644;19;20018;-68
2023/04/07 08:50:12;;;;;;;15.23;10.95;;;;;;;6.76;57.83;101356.72;7399561;19;20033;-68
2023/04/07 08:52:46;;;;;;;13.95;10.00;;;;;;;6.87;57.33;101349.81;7399884;19;20074;-68
2023/04/07 08:55:15;;;;;;;13.18;10.68;;;;;;;6.98;56.82;101355.06;7399980;19;20014;-69
2023/04/07 08:57:44;;;;;;;13.60;10.18;;;;;;;7.09;56.58;101352.47;7397081;19;20018;-69
2023/04/07 09:00:14;;;;;;;14.02;9.65;;;;;;;7.20;56.52;101353.38;7399390;19;20090;-68
2023/04/07 09:02:47;;;;;;;14.85;9.48;;;;;;;7.32;55.45;101350.78;7399052;19;20031;-67
2023/04/07 09:05:16;;;;;;;15.80;9.77;;;;;;;7.45;55.87;101348.19;7396522;19;20522;-68
2023/04/07 09:07:44;;;;;;;14.27;9.73;;;;;;;7.56;55.72;101354.31;7399529;19;20424;-69
2023/04/07 09:10:13;;;;;;;13.80;9.10;;;;;;;7.65;55.20;101356.91;7399192;19;20014;-68
2023/04/07 09:12:42;;;;;;;13.15;8.40;;;;;;;7.75;54.79;101352.56;7396797;19;20078;-69
2023/04/07 09:15:10;;;;;;;12.18;7.63;;;;;;;7.83;53.81;101355.16;7398576;19;20086;-69
2023/04/07 09:17:39;;;;;;;13.48;9.18;;;;;;;7.91;53.25;101356.03;7398873;19;20023;-69
2023/04/07 09:20:11;;;;;;;11.00;8.52;;;;;;;7.98;52.61;101352.53;7398427;19;20015;-69
2023/04/07 09:22:41;;;;;;;14.13;9.20;;;;;;;8.07;52.28;101353.41;7396715;19;20024;-69
2023/04/07 09:25:17;;;;;;;15.90;10.20;;;;;;;8.15;51.31;101355.13;7398427;19;20091;-69
2023/04/07 09:28:04;;;;;;;12.85;8.45;;;;;;;8.24;48.32;101356.84;7396940;19;20014;-68
2023/04/07 09:30:34;;;;;;;13.23;8.80;;;;;;;8.31;51.02;101355.97;7398070;19;20541;-68
2023/04/07 09:33:03;;;;;;;12.27;7.75;;;;;;;8.36;50.78;101358.56;7397382;19;20031;-68
2023/04/07 09:35:52;;;;;;;11.80;8.18;;;;;;;8.40;50.39;101360.28;7397844;19;20081;-68
2023/04/07 09:38:21;;;;;;;13.65;8.45;;;;;;;8.43;50.45;101362.03;7398691;19;20560;-68
2023/04/07 09:40:50;;;;;;;10.10;7.65;;;;;;;8.45;49.92;101360.28;7396524;19;20074;-68
2023/04/07 09:43:20;;;;;;;12.65;8.40;;;;;;;8.46;49.85;101362.06;7396955;19;20481;-67
2023/04/07 09:45:48;;;;;;;13.00;8.95;;;;;;;8.43;49.44;101356.81;7395528;19;20014;-68
2023/04/07 09:48:21;;;;;;;14.43;7.75;;;;;;;8.41;49.59;101358.56;7396146;19;20031;-68
2023/04/07 09:50:52;;;;;;;13.00;8.48;;;;;;;8.42;49.46;101362.91;7398147;19;20022;-69
2023/04/07 09:53:21;;;;;;;11.25;8.70;;;;;;;8.44;49.58;101358.53;7396549;19;20014;-68
2023/04/07 09:55:51;;;;;;;13.02;9.27;;;;;;;8.45;49.40;101363.78;7396877;19;20380;-67
2023/04/07 09:58:20;;;;;;;14.63;8.18;;;;;;;8.45;49.30;101357.66;7395528;19;20069;-67
2023/04/07 10:00:49;;;;;;;15.93;9.07;;;;;;;8.44;49.28;101362.03;7395037;19;20027;-69
2023/04/07 10:03:18;;;;;;;12.43;8.70;;;;;;;8.44;49.35;101358.53;7395569;19;20022;-68
2023/04/07 10:05:48;;;;;;;16.17;10.77;;;;;;;8.44;49.39;101353.31;7396757;19;20477;-67
2023/04/07 10:08:20;;;;;;;13.52;8.60;;;;;;;8.46;49.08;101362.91;7397259;19;20110;-68
2023/04/07 10:10:50;;;;;;;11.38;7.78;;;;;;;8.49;48.83;101367.25;7397668;19;20043;-68
2023/04/07 10:13:18;;;;;;;11.43;8.70;;;;;;;8.53;49.04;101369.03;7396526;19;20015;-67
2023/04/07 10:15:47;;;;;;;14.60;9.02;;;;;;;8.56;48.82;101362.91;7395863;19;20039;-68
2023/04/07 10:18:18;;;;;;;14.35;8.55;;;;;;;8.57;48.68;101360.28;7395541;19;20021;-69
2023/04/07 10:20:48;;;;;;;13.70;8.70;;;;;;;8.57;48.41;101356.81;7396023;19;20014;-66
2023/04/07 10:23:23;;;;;;;27.90;15.70;;;;;;;8.50;48.20;101362.91;7395899;19;20044;-66
2023/04/07 10:25:54;;;;;;;22.23;13.48;;;;;;;8.48;48.46;101360.31;7394892;19;20018;-66
2023/04/07 10:28:24;;;;;;;20.05;10.10;;;;;;;8.43;48.28;101355.06;7396881;19;20011;-66
2023/04/07 10:30:54;;;;;;;15.40;10.73;;;;;;;8.34;48.72;101357.72;7396555;19;20090;-67
2023/04/07 10:33:46;;;;;;;18.52;11.25;;;;;;;8.29;48.95;101348.97;7395179;19;20022;-67
2023/04/07 10:36:15;;;;;;;15.52;10.05;;;;;;;8.32;49.29;101349.84;7395857;19;20421;-67
2023/04/07 10:39:22;;;;;;;10.52;8.10;;;;;;;8.41;48.72;101350.72;7395642;19;20014;-67
2023/04/07 10:41:51;;;;;;;15.52;9.25;;;;;;;8.54;49.20;101352.44;7393937;19;20033;-69
2023/04/07 10:44:47;;;;;;;14.55;8.50;;;;;;;8.62;47.37;101349.81;7394858;19;20018;-69
2023/04/07 10:47:16;;;;;;;15.27;8.90;;;;;;;8.68;48.38;101344.56;7393891;19;20018;-68
2023/04/07 10:50:14;;;;;;;14.75;9.60;;;;;;;8.79;47.76;101339.25;7395741;19;20022;-69
2023/04/07 10:52:43;;;;;;;10.65;7.78;;;;;;;8.91;48.20;101344.44;7395854;19;20408;-68
2023/04/07 10:55:42;;;;;;;10.15;7.20;;;;;;;8.99;45.15;101340.91;7395638;19;20023;-68
2023/04/07 10:58:18;;;;;;;12.90;7.30;;;;;;;9.04;46.29;101345.22;7394996;19;20015;-67
2023/04/07 11:01:23;;;;;;;10.27;8.23;;;;;;;9.10;44.41;101344.34;7395014;19;20414;-67
2023/04/07 11:03:59;;;;;;;12.63;7.40;;;;;;;9.16;45.67;101336.41;7394095;19;20023;-67
2023/04/07 11:06:28;;;;;;;11.35;7.25;;;;;;;9.28;46.09;101338.09;7395522;19;20014;-68
2023/04/07 11:08:57;;;;;;;11.85;7.28;;;;;;;9.37;45.85;101335.41;7394803;19;20014;-68
2023/04/07 11:11:47;;;;;;;12.07;7.05;;;;;;;9.51;45.40;101342.31;7395052;19;20031;-68
2023/04/07 11:14:27;;;;;;;11.88;7.13;;;;;;;9.64;44.33;101335.22;7393633;19;20029;-69
2023/04/07 11:16:55;;;;;;;7.75;5.93;;;;;;;9.74;44.51;101343.00;7394873;19;20028;-69
2023/04/07 11:19:24;;;;;;;8.82;5.68;;;;;;;9.80;43.07;101331.56;7394958;19;20078;-68
2023/04/07 11:21:53;;;;;;;8.55;5.25;;;;;;;9.77;41.77;101337.72;7393655;19;20015;-69
2023/04/07 11:24:36;;;;;;;8.13;5.20;;;;;;;9.65;39.44;101337.81;7393452;19;20018;-68
2023/04/07 11:27:08;;;;;;;9.45;6.13;;;;;;;9.65;42.21;101336.97;7393467;19;20015;-70
2023/04/07 11:29:37;;;;;;;7.68;4.68;;;;;;;9.68;41.04;101340.44;7395222;19;20010;-69
2023/04/07 11:32:06;;;;;;;7.47;4.90;;;;;;;9.65;38.07;101342.19;7394943;19;20364;-69
2023/04/07 11:34:36;;;;;;;10.15;5.65;;;;;;;9.60;40.40;101330.03;7393067;19;20037;-69